Audrey — PD9331 — position and weather

sailwx.info

Track history (hours):
 
Tides and Currents Weather Stations Pressure Air Temp Water Temp Dewpoint Dewpoint Depression Visibility Wind Speed Wind Dir Waves Ship Positions

Audrey

Last reported at 2014-Sep-17 03:33 UTC. Time now 2014-Sep-21 16:09 UTC.
Position N 49°52' E 009°09'.

Length 85 m; draft 2.3 m.

Type: Other ship. MMSI: 244660106.

Date/timePositionNaut miles runAvg speedWind from/ knotsBaromVisibWave heightAir tempDewpointWater temp
2014-Sep-17 03:33N 49°52' E 009°09'0 0.0
2014-Sep-17 02:06N 49°52' E 009°09'0 0.0
2014-Sep-17 01:33N 49°52' E 009°09'0 0.0
2014-Sep-17 00:33N 49°52' E 009°09'0 0.0
2014-Sep-16 23:24N 49°52' E 009°09'0 0.0
2014-Sep-16 22:09N 49°52' E 009°09'0 0.0
2014-Sep-16 21:23N 49°52' E 009°09'0 0.0
2014-Sep-16 20:26N 49°52' E 009°09'7 1.5
2014-Sep-16 15:33N 49°58' E 009°05'4 4.0
2014-Sep-16 14:33N 50°02' E 009°02'4 4.0
2014-Sep-16 13:33N 50°05' E 008°58'3 2.8
2014-Sep-16 12:33N 50°07' E 008°55'3 2.7
2014-Sep-16 11:33N 50°08' E 008°51'4 3.6
2014-Sep-16 10:33N 50°07' E 008°45'4 4.2
2014-Sep-16 09:33N 50°06' E 008°39'4 4.2
2014-Sep-16 08:29N 50°05' E 008°32'  
Track history (hours):
 
Tides and Currents Weather Stations Pressure Air Temp Water Temp Dewpoint Dewpoint Depression Visibility Wind Speed Wind Dir Waves Ship Positions

Audrey

Last reported at 2014-Sep-17 03:33 UTC. Time now 2014-Sep-21 16:09 UTC.
Position N 49°52' E 009°09'.

Length 85 m; draft 2.3 m.

Type: Other ship. MMSI: 244660106.

Date/timePositionNaut miles runAvg speedWind from/ knotsBaromVisibWave heightAir tempDewpointWater temp
2014-Sep-17 03:33N 49°52' E 009°09'0 0.0
2014-Sep-17 02:06N 49°52' E 009°09'0 0.0
2014-Sep-17 01:33N 49°52' E 009°09'0 0.0
2014-Sep-17 00:33N 49°52' E 009°09'0 0.0
2014-Sep-16 23:24N 49°52' E 009°09'0 0.0
2014-Sep-16 22:09N 49°52' E 009°09'0 0.0
2014-Sep-16 21:23N 49°52' E 009°09'0 0.0
2014-Sep-16 20:26N 49°52' E 009°09'7 1.5
2014-Sep-16 15:33N 49°58' E 009°05'4 4.0
2014-Sep-16 14:33N 50°02' E 009°02'4 4.0
2014-Sep-16 13:33N 50°05' E 008°58'3 2.8
2014-Sep-16 12:33N 50°07' E 008°55'3 2.7
2014-Sep-16 11:33N 50°08' E 008°51'4 3.6
2014-Sep-16 10:33N 50°07' E 008°45'4 4.2
2014-Sep-16 09:33N 50°06' E 008°39'4 4.2
2014-Sep-16 08:29N 50°05' E 008°32'  

Dump ship's entire track history